Time,TemperatureF,DewpointF,PressureIn,WindDirection,WindDirectionDegrees,WindSpeedMPH,WindSpeedGustMPH,Humidity,HourlyPrecipIn,Conditions,Clouds,dailyrainin,SoftwareType,DateUTC
2013-05-05 00:02:00,38.0,36.0,-100.00,NE,45,0.0,0.0,95,-99.99,,,-99.99,,2013-05-05 05:02:00,
2013-05-05 00:12:00,38.0,36.0,-100.00,NE,45,0.0,0.0,95,-99.99,,,-99.99,,2013-05-05 05:12:00,
2013-05-05 00:21:00,38.0,36.0,-100.00,NE,45,0.0,0.0,95,-99.99,,,-99.99,,2013-05-05 05:21:00,
2013-05-05 00:31:00,38.0,36.0,-100.00,NE,45,0.0,0.0,95,-99.99,,,-99.99,,2013-05-05 05:31:00,
2013-05-05 00:52:00,37.0,35.0,-100.00,NE,45,0.0,0.0,93,-99.99,,,-99.99,,2013-05-05 05:52:00,
2013-05-05 01:01:00,37.0,35.0,-100.00,NE,45,0.0,0.0,93,-99.99,,,-99.99,,2013-05-05 06:01:00,
2013-05-05 01:12:00,37.0,35.0,-100.00,NE,45,0.0,0.0,93,-99.99,,,-99.99,,2013-05-05 06:12:00,
2013-05-05 01:21:00,37.0,35.0,-100.00,NE,45,0.0,0.0,93,-99.99,,,-99.99,,2013-05-05 06:21:00,
2013-05-05 01:32:00,37.0,35.0,-100.00,NE,45,0.0,0.0,93,-99.99,,,-99.99,,2013-05-05 06:32:00,
2013-05-05 01:52:00,36.0,35.0,-100.00,NE,40,0.0,0.0,94,-99.99,,,-99.99,,2013-05-05 06:52:00,
2013-05-05 02:01:00,36.0,35.0,-100.00,NE,40,0.0,0.0,94,-99.99,,,-99.99,,2013-05-05 07:01:00,
2013-05-05 02:11:00,36.0,35.0,-100.00,NE,40,0.0,0.0,94,-99.99,,,-99.99,,2013-05-05 07:11:00,
2013-05-05 02:21:00,36.0,35.0,-100.00,NE,40,0.0,0.0,94,-99.99,,,-99.99,,2013-05-05 07:21:00,
2013-05-05 02:52:00,36.0,35.0,-100.00,NE,55,0.0,0.0,96,-99.99,,,-99.99,,2013-05-05 07:52:00,
2013-05-05 03:02:00,36.0,35.0,-100.00,NE,55,0.0,0.0,96,-99.99,,,-99.99,,2013-05-05 08:02:00,
2013-05-05 03:11:00,36.0,35.0,-100.00,NE,55,0.0,0.0,96,-99.99,,,-99.99,,2013-05-05 08:11:00,
2013-05-05 03:21:00,36.0,35.0,-100.00,NE,55,0.0,0.0,96,-99.99,,,-99.99,,2013-05-05 08:21:00,
2013-05-05 03:31:00,36.0,35.0,-100.00,NE,55,0.0,0.0,96,-99.99,,,-99.99,,2013-05-05 08:31:00,
2013-05-05 03:32:00,36.0,35.0,-100.00,NE,45,0.0,0.0,97,-99.99,,,-99.99,,2013-05-05 08:32:00,
2013-05-05 03:53:00,36.0,35.0,-100.00,NE,45,0.0,0.0,97,-99.99,,,-99.99,,2013-05-05 08:53:00,
2013-05-05 04:01:00,36.0,35.0,-100.00,NE,45,0.0,0.0,97,-99.99,,,-99.99,,2013-05-05 09:01:00,
2013-05-05 04:11:00,36.0,35.0,-100.00,NE,45,0.0,0.0,97,-99.99,,,-99.99,,2013-05-05 09:11:00,
2013-05-05 04:21:00,36.0,35.0,-100.00,NE,45,0.0,0.0,97,-99.99,,,-99.99,,2013-05-05 09:21:00,
2013-05-05 04:32:00,36.0,36.0,-100.00,NE,40,0.0,0.0,98,-99.99,,,-99.99,,2013-05-05 09:32:00,
2013-05-05 04:52:00,36.0,36.0,-100.00,NE,40,0.0,0.0,98,-99.99,,,-99.99,,2013-05-05 09:52:00,
2013-05-05 05:03:00,36.0,36.0,-100.00,NE,40,0.0,0.0,98,-99.99,,,-99.99,,2013-05-05 10:03:00,
2013-05-05 05:12:00,36.0,36.0,-100.00,NE,40,0.0,0.0,98,-99.99,,,-99.99,,2013-05-05 10:12:00,
2013-05-05 05:22:00,36.0,36.0,-100.00,NE,40,0.0,0.0,98,-99.99,,,-99.99,,2013-05-05 10:22:00,
2013-05-05 05:53:00,36.0,35.0,-100.00,NNE,25,0.0,0.0,98,-99.99,,,-99.99,,2013-05-05 10:53:00,
2013-05-05 06:01:00,36.0,35.0,-100.00,NNE,25,0.0,0.0,98,-99.99,,,-99.99,,2013-05-05 11:01:00,
2013-05-05 06:12:00,36.0,35.0,-100.00,NNE,25,0.0,0.0,98,-99.99,,,-99.99,,2013-05-05 11:12:00,
2013-05-05 06:22:00,36.0,35.0,-100.00,NNE,25,0.0,0.0,98,-99.99,,,-99.99,,2013-05-05 11:22:00,
2013-05-05 06:32:00,36.0,35.0,-100.00,NNE,25,0.0,0.0,98,-99.99,,,-99.99,,2013-05-05 11:32:00,
2013-05-05 06:52:00,36.0,36.0,-100.00,ENE,60,0.0,0.0,98,-99.99,,,-99.99,,2013-05-05 11:52:00,
2013-05-05 07:02:00,36.0,36.0,-100.00,ENE,60,0.0,0.0,98,-99.99,,,-99.99,,2013-05-05 12:02:00,
2013-05-05 07:11:00,36.0,36.0,-100.00,ENE,60,0.0,0.0,98,-99.99,,,-99.99,,2013-05-05 12:11:00,
2013-05-05 07:21:00,36.0,36.0,-100.00,ENE,60,0.0,0.0,98,-99.99,,,-99.99,,2013-05-05 12:21:00,
2013-05-05 07:32:00,36.0,36.0,-100.00,ENE,60,0.0,0.0,98,-99.99,,,-99.99,,2013-05-05 12:32:00,
2013-05-05 07:52:00,37.0,36.0,-100.00,NE,35,0.0,0.0,98,-99.99,,,-99.99,,2013-05-05 12:52:00,
2013-05-05 08:01:00,37.0,36.0,-100.00,NE,35,0.0,0.0,98,-99.99,,,-99.99,,2013-05-05 13:01:00,
2013-05-05 08:11:00,37.0,36.0,-100.00,NE,35,0.0,0.0,98,-99.99,,,-99.99,,2013-05-05 13:11:00,
2013-05-05 08:21:00,37.0,36.0,-100.00,NE,35,0.0,0.0,98,-99.99,,,-99.99,,2013-05-05 13:21:00,
2013-05-05 08:31:00,37.0,37.0,-100.00,NNE,25,0.0,0.0,98,-99.99,,,-99.99,,2013-05-05 13:31:00,
2013-05-05 08:32:00,37.0,36.0,-100.00,NE,35,0.0,0.0,98,-99.99,,,-99.99,,2013-05-05 13:32:00,
2013-05-05 08:52:00,37.0,37.0,-100.00,NNE,25,0.0,0.0,98,-99.99,,,-99.99,,2013-05-05 13:52:00,
2013-05-05 09:02:00,37.0,37.0,-100.00,NNE,25,0.0,0.0,98,-99.99,,,-99.99,,2013-05-05 14:02:00,
2013-05-05 09:11:00,37.0,37.0,-100.00,NNE,25,0.0,0.0,98,-99.99,,,-99.99,,2013-05-05 14:11:00,
2013-05-05 09:21:00,37.0,37.0,-100.00,NNE,25,0.0,0.0,98,-99.99,,,-99.99,,2013-05-05 14:21:00,
2013-05-05 09:33:00,39.0,37.0,-100.00,NNE,25,0.0,0.0,93,-99.99,,,-99.99,,2013-05-05 14:33:00,
2013-05-05 09:52:00,39.0,37.0,-100.00,NNE,25,0.0,0.0,93,-99.99,,,-99.99,,2013-05-05 14:52:00,
2013-05-05 10:02:00,39.0,37.0,-100.00,NNE,25,0.0,0.0,93,-99.99,,,-99.99,,2013-05-05 15:02:00,
2013-05-05 10:11:00,39.0,37.0,-100.00,NNE,25,0.0,0.0,93,-99.99,,,-99.99,,2013-05-05 15:11:00,
2013-05-05 10:21:00,39.0,37.0,-100.00,NNE,25,0.0,0.0,93,-99.99,,,-99.99,,2013-05-05 15:21:00,
2013-05-05 10:31:00,42.0,37.0,-100.00,NE,55,0.0,0.0,84,-99.99,,,-99.99,,2013-05-05 15:31:00,
2013-05-05 10:53:00,42.0,37.0,-100.00,NE,55,0.0,0.0,84,-99.99,,,-99.99,,2013-05-05 15:53:00,
2013-05-05 11:03:00,42.0,37.0,-100.00,NE,55,0.0,0.0,84,-99.99,,,-99.99,,2013-05-05 16:03:00,
2013-05-05 11:12:00,42.0,37.0,-100.00,NE,55,0.0,0.0,84,-99.99,,,-99.99,,2013-05-05 16:12:00,
2013-05-05 11:23:00,42.0,37.0,-100.00,NE,55,0.0,0.0,84,-99.99,,,-99.99,,2013-05-05 16:23:00,
2013-05-05 11:31:00,47.0,37.0,-100.00,NNE,30,4.0,13.0,68,-99.99,,,-99.99,,2013-05-05 16:31:00,
2013-05-05 11:53:00,47.0,37.0,-100.00,NNE,30,4.0,13.0,68,-99.99,,,-99.99,,2013-05-05 16:53:00,
2013-05-05 12:02:00,47.0,37.0,-100.00,NNE,30,4.0,13.0,68,-99.99,,,-99.99,,2013-05-05 17:02:00,
2013-05-05 12:12:00,47.0,37.0,-100.00,NNE,30,4.0,13.0,68,-99.99,,,-99.99,,2013-05-05 17:12:00,
2013-05-05 12:23:00,47.0,37.0,-100.00,NNE,30,4.0,13.0,68,-99.99,,,-99.99,,2013-05-05 17:23:00,
2013-05-05 12:31:00,53.0,36.0,-100.00,NNE,20,2.0,11.0,52,-99.99,,,-99.99,,2013-05-05 17:31:00,
2013-05-05 12:52:00,53.0,36.0,-100.00,NNE,20,2.0,11.0,52,-99.99,,,-99.99,,2013-05-05 17:52:00,
2013-05-05 13:01:00,53.0,36.0,-100.00,NNE,20,2.0,11.0,52,-99.99,,,-99.99,,2013-05-05 18:01:00,
2013-05-05 13:12:00,53.0,36.0,-100.00,NNE,20,2.0,11.0,52,-99.99,,,-99.99,,2013-05-05 18:12:00,
2013-05-05 13:21:00,53.0,36.0,-100.00,NNE,20,2.0,11.0,52,-99.99,,,-99.99,,2013-05-05 18:21:00,
2013-05-05 14:30:00,58.0,37.0,-100.00,ENE,75,7.0,12.0,46,-99.99,,,-99.99,,2013-05-05 19:30:00,
2013-05-05 14:52:00,58.0,37.0,-100.00,ENE,75,7.0,12.0,46,-99.99,,,-99.99,,2013-05-05 19:52:00,
2013-05-05 15:01:00,58.0,37.0,-100.00,ENE,75,7.0,12.0,46,-99.99,,,-99.99,,2013-05-05 20:01:00,
2013-05-05 15:11:00,58.0,37.0,-100.00,ENE,75,7.0,12.0,46,-99.99,,,-99.99,,2013-05-05 20:11:00,
2013-05-05 15:21:00,58.0,37.0,-100.00,ENE,75,7.0,12.0,46,-99.99,,,-99.99,,2013-05-05 20:21:00,
2013-05-05 16:53:00,63.0,38.0,-100.00,NE,50,4.0,13.0,40,-99.99,,,-99.99,,2013-05-05 21:53:00,
2013-05-05 17:02:00,63.0,38.0,-100.00,NE,50,4.0,13.0,40,-99.99,,,-99.99,,2013-05-05 22:02:00,
2013-05-05 17:12:00,63.0,38.0,-100.00,NE,50,4.0,13.0,40,-99.99,,,-99.99,,2013-05-05 22:12:00,
2013-05-05 17:22:00,63.0,38.0,-100.00,NE,50,4.0,13.0,40,-99.99,,,-99.99,,2013-05-05 22:22:00,
2013-05-05 17:33:00,63.0,38.0,-100.00,NE,50,4.0,13.0,40,-99.99,,,-99.99,,2013-05-05 22:33:00,
2013-05-05 18:52:00,63.0,37.0,-100.00,NE,55,4.0,9.0,38,-99.99,,,-99.99,,2013-05-05 23:52:00,
2013-05-05 19:01:00,63.0,37.0,-100.00,NE,55,4.0,9.0,38,-99.99,,,-99.99,,2013-05-06 00:01:00,
2013-05-05 19:11:00,63.0,37.0,-100.00,NE,55,4.0,9.0,38,-99.99,,,-99.99,,2013-05-06 00:11:00,
2013-05-05 19:21:00,63.0,37.0,-100.00,NE,55,4.0,9.0,38,-99.99,,,-99.99,,2013-05-06 00:21:00,
2013-05-05 19:31:00,63.0,37.0,-100.00,NE,55,4.0,9.0,38,-99.99,,,-99.99,,2013-05-06 00:31:00,
2013-05-05 19:52:00,62.0,37.0,-100.00,NE,50,2.0,6.0,40,-99.99,,,-99.99,,2013-05-06 00:52:00,
2013-05-05 20:01:00,62.0,37.0,-100.00,NE,50,2.0,6.0,40,-99.99,,,-99.99,,2013-05-06 01:01:00,
2013-05-05 20:11:00,62.0,37.0,-100.00,NE,50,2.0,6.0,40,-99.99,,,-99.99,,2013-05-06 01:11:00,
2013-05-05 20:21:00,62.0,37.0,-100.00,NE,50,2.0,6.0,40,-99.99,,,-99.99,,2013-05-06 01:21:00,
2013-05-05 20:31:00,62.0,37.0,-100.00,NE,50,2.0,6.0,40,-99.99,,,-99.99,,2013-05-06 01:31:00,
2013-05-05 20:32:00,57.0,38.0,-100.00,NE,35,2.0,6.0,50,-99.99,,,-99.99,,2013-05-06 01:32:00,
2013-05-05 20:52:00,57.0,38.0,-100.00,NE,35,2.0,6.0,50,-99.99,,,-99.99,,2013-05-06 01:52:00,
2013-05-05 21:02:00,57.0,38.0,-100.00,NE,35,2.0,6.0,50,-99.99,,,-99.99,,2013-05-06 02:02:00,
2013-05-05 21:12:00,57.0,38.0,-100.00,NE,35,2.0,6.0,50,-99.99,,,-99.99,,2013-05-06 02:12:00,
2013-05-05 21:21:00,57.0,38.0,-100.00,NE,35,2.0,6.0,50,-99.99,,,-99.99,,2013-05-06 02:21:00,
2013-05-05 22:52:00,50.0,40.0,-100.00,ENE,60,0.0,0.0,68,-99.99,,,-99.99,,2013-05-06 03:52:00,
2013-05-05 23:02:00,50.0,40.0,-100.00,ENE,60,0.0,0.0,68,-99.99,,,-99.99,,2013-05-06 04:02:00,
2013-05-05 23:12:00,50.0,40.0,-100.00,ENE,60,0.0,0.0,68,-99.99,,,-99.99,,2013-05-06 04:12:00,
2013-05-05 23:23:00,50.0,40.0,-100.00,ENE,60,0.0,0.0,68,-99.99,,,-99.99,,2013-05-06 04:23:00,
2013-05-05 23:32:00,50.0,40.0,-100.00,ENE,60,0.0,0.0,68,-99.99,,,-99.99,,2013-05-06 04:32:00,
2013-05-05 23:53:00,47.0,39.0,-100.00,NE,40,0.0,0.0,74,-99.99,,,-99.99,,2013-05-06 04:53:00,